createdAt,value
2022-10-13T00:00:31.069Z,4.70
2022-10-13T00:04:02.690Z,4.80
2022-10-13T00:07:33.628Z,4.80
2022-10-13T00:11:07.161Z,4.80
2022-10-13T00:14:39.172Z,4.90
2022-10-13T00:18:10.167Z,4.80
2022-10-13T00:21:53.560Z,4.80
2022-10-13T00:25:36.227Z,4.80
2022-10-13T00:29:07.860Z,4.80
2022-10-13T00:32:39.012Z,4.90
2022-10-13T00:36:11.325Z,5.00
2022-10-13T00:39:42.448Z,5.00
2022-10-13T00:43:13.227Z,5.00
2022-10-13T00:46:45.961Z,5.00
2022-10-13T00:50:23.537Z,5.00
2022-10-13T00:53:59.495Z,5.10
2022-10-13T00:57:32.164Z,5.10
2022-10-13T01:01:14.451Z,5.10
2022-10-13T01:04:37.966Z,5.10
2022-10-13T01:08:08.954Z,5.10
2022-10-13T01:12:05.247Z,5.20
2022-10-13T01:39:30.944Z,5.40
2022-10-13T02:06:49.079Z,5.50
2022-10-13T02:28:19.983Z,5.60
2022-10-13T02:31:51.921Z,5.60
2022-10-13T02:35:14.014Z,5.60
2022-10-13T02:38:45.393Z,5.60
2022-10-13T02:42:16.716Z,5.60
2022-10-13T02:45:48.379Z,5.50
2022-10-13T02:49:19.585Z,5.50
2022-10-13T02:52:50.600Z,5.60
2022-10-13T02:56:21.716Z,5.50
2022-10-13T02:59:53.288Z,5.50
2022-10-13T03:03:24.324Z,5.40
2022-10-13T03:06:55.718Z,5.40
2022-10-13T03:10:26.821Z,5.40
2022-10-13T03:13:58.096Z,5.50
2022-10-13T03:17:29.763Z,5.50
2022-10-13T03:21:11.852Z,5.60
2022-10-13T03:24:34.890Z,5.60
2022-10-13T03:28:06.019Z,5.60
2022-10-13T03:31:39.034Z,5.60
2022-10-13T03:35:09.947Z,5.70
2022-10-13T03:38:41.546Z,5.70
2022-10-13T03:42:12.565Z,5.70
2022-10-13T03:45:44.283Z,5.70
2022-10-13T03:49:15.509Z,5.70
2022-10-13T03:52:46.475Z,5.70
2022-10-13T03:56:40.301Z,5.70
2022-10-13T04:00:11.266Z,5.80
2022-10-13T04:03:43.355Z,5.80
2022-10-13T04:07:05.404Z,5.80
2022-10-13T04:10:27.634Z,5.80
2022-10-13T04:13:59.151Z,5.70
2022-10-13T04:17:30.085Z,5.80
2022-10-13T04:21:16.788Z,5.70
2022-10-13T04:24:59.427Z,5.80
2022-10-13T04:28:40.532Z,5.80
2022-10-13T04:32:12.080Z,5.80
2022-10-13T04:35:43.137Z,5.80
2022-10-13T04:39:14.208Z,5.90
2022-10-13T04:42:45.042Z,5.90
2022-10-13T04:46:38.645Z,6.00
2022-10-13T04:50:09.793Z,5.90
2022-10-13T04:53:41.475Z,5.90
2022-10-13T04:57:13.141Z,5.90
2022-10-13T05:00:44.693Z,5.90
2022-10-13T05:04:18.907Z,6.00
2022-10-13T05:07:49.873Z,6.00
2022-10-13T05:11:39.289Z,6.10
2022-10-13T05:15:10.276Z,6.10
2022-10-13T05:18:41.265Z,6.10
2022-10-13T05:22:21.586Z,6.10
2022-10-13T05:25:53.539Z,6.20
2022-10-13T05:29:25.076Z,6.20
2022-10-13T05:32:55.894Z,6.20
2022-10-13T05:36:49.552Z,6.30
2022-10-13T05:40:21.719Z,6.40
2022-10-13T05:43:52.917Z,6.50
2022-10-13T05:47:24.069Z,6.60
2022-10-13T05:50:55.904Z,6.60
2022-10-13T05:54:46.170Z,6.70
2022-10-13T05:58:19.169Z,6.70
2022-10-13T06:02:04.396Z,6.80
2022-10-13T06:05:39.820Z,6.90
2022-10-13T06:09:10.944Z,6.90
2022-10-13T06:12:42.903Z,7.00
2022-10-13T06:16:13.910Z,7.10
2022-10-13T06:19:45.247Z,7.20
2022-10-13T06:23:16.237Z,7.30
2022-10-13T06:26:47.534Z,7.40
2022-10-13T06:30:18.348Z,7.50
2022-10-13T06:33:49.434Z,7.50
2022-10-13T06:37:24.640Z,7.60
2022-10-13T06:40:58.152Z,7.70
2022-10-13T06:44:29.828Z,7.90
2022-10-13T06:48:01.938Z,8.00
2022-10-13T06:51:34.037Z,8.00
2022-10-13T06:54:55.953Z,8.10
2022-10-13T06:58:26.812Z,8.20
2022-10-13T07:01:58.403Z,8.30
2022-10-13T07:05:29.378Z,8.40
2022-10-13T07:09:01.521Z,8.50
2022-10-13T07:12:23.946Z,8.60
2022-10-13T07:16:06.408Z,8.60
2022-10-13T07:19:37.528Z,8.70
2022-10-13T07:23:08.798Z,8.70
2022-10-13T07:26:52.944Z,8.80
2022-10-13T07:30:24.655Z,8.90
2022-10-13T07:33:57.569Z,9.00
2022-10-13T07:37:28.807Z,9.10
2022-10-13T07:40:59.887Z,9.20
2022-10-13T07:44:31.490Z,9.30
2022-10-13T07:48:02.541Z,9.40
2022-10-13T07:51:34.961Z,9.50
2022-10-13T07:55:06.145Z,9.60
2022-10-13T07:58:49.107Z,9.70
2022-10-13T08:02:21.151Z,9.80
2022-10-13T08:05:52.212Z,9.80
2022-10-13T08:09:23.174Z,9.70
2022-10-13T08:12:55.008Z,9.70
2022-10-13T08:16:28.158Z,9.90
2022-10-13T08:20:00.389Z,10.00
2022-10-13T08:23:31.581Z,10.10
2022-10-13T08:27:04.486Z,10.20
2022-10-13T08:30:36.221Z,10.50
2022-10-13T08:34:07.149Z,10.60
2022-10-13T08:37:49.781Z,10.70
2022-10-13T08:41:53.492Z,10.80
2022-10-13T08:45:48.680Z,10.90
2022-10-13T08:49:19.832Z,11.00
2022-10-13T08:53:51.127Z,11.00
2022-10-13T08:57:22.328Z,11.10
2022-10-13T09:00:56.034Z,11.20
2022-10-13T09:23:55.555Z,11.90
2022-10-13T09:27:40.367Z,12.00
2022-10-13T09:31:46.422Z,11.90
2022-10-13T09:35:38.621Z,11.90
2022-10-13T09:39:22.847Z,12.10
2022-10-13T10:02:49.122Z,12.20
2022-10-13T10:06:45.162Z,12.30
2022-10-13T10:29:56.058Z,12.40
2022-10-13T11:05:54.452Z,13.00
2022-10-13T11:09:25.163Z,12.80
2022-10-13T11:13:39.847Z,12.70
2022-10-13T11:29:52.872Z,13.00
2022-10-13T11:34:13.228Z,13.20
2022-10-13T11:50:44.679Z,13.30
2022-10-13T12:06:18.086Z,14.10
2022-10-13T12:10:23.439Z,14.30
2022-10-13T12:14:06.379Z,14.40
2022-10-13T12:18:28.021Z,14.40
2022-10-13T12:22:20.949Z,14.60
2022-10-13T12:26:14.678Z,14.60
2022-10-13T12:29:57.440Z,14.30
2022-10-13T13:20:25.549Z,14.10
2022-10-13T13:23:59.334Z,13.90
2022-10-13T13:27:51.797Z,13.80
2022-10-13T13:31:23.206Z,13.80
2022-10-13T13:34:54.209Z,13.70
2022-10-13T13:38:28.303Z,13.80
2022-10-13T13:41:59.864Z,13.70
2022-10-13T13:45:32.167Z,13.60
2022-10-13T13:49:03.256Z,13.40
2022-10-13T13:52:34.793Z,13.30
2022-10-13T13:56:05.840Z,13.20
2022-10-13T13:59:36.927Z,13.30
2022-10-13T14:03:07.896Z,13.20
2022-10-13T14:06:51.061Z,13.10
2022-10-13T14:10:22.378Z,13.10
2022-10-13T14:13:53.284Z,13.00
2022-10-13T14:17:24.286Z,13.00
2022-10-13T14:20:58.801Z,13.00
2022-10-13T14:24:30.517Z,12.90
2022-10-13T14:28:01.844Z,12.90
2022-10-13T14:31:33.321Z,12.80
2022-10-13T14:35:04.473Z,12.70
2022-10-13T14:38:35.460Z,12.60
2022-10-13T14:42:06.091Z,12.50
2022-10-13T14:45:37.063Z,12.40
2022-10-13T14:49:19.583Z,12.20
2022-10-13T14:52:51.238Z,12.10
2022-10-13T14:56:33.819Z,12.00
2022-10-13T15:00:04.857Z,12.00
2022-10-13T15:03:35.771Z,11.90
2022-10-13T15:07:07.284Z,11.90
2022-10-13T15:10:38.159Z,11.80
2022-10-13T15:14:09.209Z,11.70
2022-10-13T15:17:40.155Z,11.60
2022-10-13T15:21:22.675Z,11.40
2022-10-13T15:24:53.740Z,11.30
2022-10-13T15:28:24.936Z,11.20
2022-10-13T15:31:56.403Z,11.10
2022-10-13T15:35:27.405Z,10.90
2022-10-13T15:38:59.427Z,10.70
2022-10-13T15:42:31.085Z,10.60
2022-10-13T15:46:03.481Z,10.40
2022-10-13T15:49:34.580Z,10.40
2022-10-13T15:53:17.145Z,10.20
2022-10-13T15:56:48.438Z,10.00
2022-10-13T16:00:20.820Z,9.90
2022-10-13T16:03:52.864Z,9.80
2022-10-13T16:07:23.686Z,9.70
2022-10-13T16:10:56.833Z,9.60
2022-10-13T16:14:28.847Z,9.50
2022-10-13T16:18:00.938Z,9.40
2022-10-13T16:21:43.717Z,9.40
2022-10-13T16:25:14.926Z,9.30
2022-10-13T16:28:46.417Z,9.30
2022-10-13T16:32:17.860Z,9.30
2022-10-13T16:35:48.710Z,9.40
2022-10-13T16:39:20.718Z,9.30
2022-10-13T16:42:42.733Z,9.40
2022-10-13T16:46:13.993Z,9.40
2022-10-13T16:49:44.962Z,9.40
2022-10-13T16:53:16.011Z,9.40
2022-10-13T16:56:47.068Z,9.40
2022-10-13T17:00:18.208Z,9.40
2022-10-13T17:03:49.440Z,9.40
2022-10-13T17:07:20.762Z,9.40
2022-10-13T17:10:58.013Z,9.40
2022-10-13T17:14:29.671Z,9.30
2022-10-13T17:18:00.755Z,9.30
2022-10-13T17:21:49.541Z,9.30
2022-10-13T17:25:20.748Z,9.40
2022-10-13T17:28:52.339Z,9.40
2022-10-13T17:32:14.253Z,9.40
2022-10-13T17:35:36.595Z,9.40
2022-10-13T17:38:59.057Z,9.30
2022-10-13T17:42:29.570Z,9.30
2022-10-13T17:46:17.663Z,9.30
2022-10-13T17:49:51.848Z,9.30
2022-10-13T17:53:22.332Z,9.30
2022-10-13T17:57:05.953Z,9.30
2022-10-13T18:01:00.671Z,9.30
2022-10-13T18:04:43.512Z,9.30
2022-10-13T18:08:25.370Z,9.30
2022-10-13T18:11:50.654Z,9.30
2022-10-13T18:15:22.540Z,9.20
2022-10-13T18:18:53.987Z,9.20
2022-10-13T18:22:25.241Z,9.20
2022-10-13T18:25:56.086Z,9.20
2022-10-13T18:29:28.807Z,9.20
2022-10-13T18:33:00.845Z,9.20
2022-10-13T18:36:34.390Z,9.20
2022-10-13T18:40:05.653Z,9.20
2022-10-13T18:43:36.601Z,9.20
2022-10-13T18:47:09.896Z,9.20
2022-10-13T18:50:41.059Z,9.20
2022-10-13T18:54:14.785Z,9.30
2022-10-13T18:57:45.887Z,9.20
2022-10-13T19:01:18.621Z,9.10
2022-10-13T19:04:49.724Z,9.10
2022-10-13T19:08:20.773Z,8.90
2022-10-13T19:12:02.272Z,8.90
2022-10-13T19:15:33.822Z,8.90
2022-10-13T19:19:05.387Z,8.90
2022-10-13T19:22:36.575Z,8.90
2022-10-13T19:26:13.919Z,8.90
2022-10-13T19:29:54.516Z,8.90
2022-10-13T19:33:26.005Z,8.90
2022-10-13T19:37:09.649Z,9.00
2022-10-13T19:40:42.488Z,9.00
2022-10-13T19:44:13.756Z,9.00
2022-10-13T19:47:44.914Z,8.90
2022-10-13T19:51:18.707Z,8.90
2022-10-13T19:54:50.550Z,8.90
2022-10-13T19:58:27.468Z,8.90
2022-10-13T20:01:59.248Z,8.90
2022-10-13T20:05:30.461Z,8.90
2022-10-13T20:09:01.339Z,9.00
2022-10-13T20:12:32.516Z,9.00
2022-10-13T20:16:26.666Z,8.90
2022-10-13T20:19:57.529Z,8.90
2022-10-13T20:23:28.756Z,8.90
2022-10-13T20:27:00.225Z,8.90
2022-10-13T20:30:31.477Z,8.90
2022-10-13T20:34:13.481Z,8.90
2022-10-13T20:37:44.452Z,8.90
2022-10-13T20:41:43.866Z,8.90
2022-10-13T20:45:15.314Z,8.90
2022-10-13T20:52:38.293Z,8.80
2022-10-13T20:56:31.480Z,8.80
2022-10-13T21:00:02.799Z,8.80
2022-10-13T23:06:00.036Z,8.80
2022-10-13T23:09:32.532Z,8.80
2022-10-13T23:13:03.599Z,8.70
2022-10-13T23:16:47.961Z,8.70
2022-10-13T23:20:19.094Z,8.70
2022-10-13T23:23:50.154Z,8.60
2022-10-13T23:27:21.497Z,8.50
2022-10-13T23:30:52.769Z,8.40
2022-10-13T23:34:24.278Z,8.30
2022-10-13T23:37:55.255Z,8.20
2022-10-13T23:41:37.978Z,8.20
2022-10-13T23:45:08.837Z,8.10
2022-10-13T23:48:40.007Z,8.00
2022-10-13T23:52:11.256Z,8.00
2022-10-13T23:55:45.954Z,7.90
2022-10-13T23:59:24.463Z,7.90
